Terminal Aerodrome Forecast
Issued by NWS

Home | Current Version | Previous Version | Text Only | Print | Product List | Glossary On
Versions: 1 2 3 4 5 6 7 8 9 10 11 12 13
000
FTUS45 KRIW 280521
TAFPNA
TAF
KPNA 280521Z 2806/2906 30008KT P6SM SCT100
     FM281900 30007KT P6SM VCTS SCT040CB BKN070
     FM290200 30006KT P6SM SCT050 BKN080
      AMD LTD TO CLD VIS AND WIND=

USA.gov is the U.S. government's official web portal to all federal, state and local government web resources and services.